createdAt,value
2023-04-28T08:24:10.806Z,12.40
2023-04-28T08:26:13.608Z,11.85
2023-04-28T08:28:16.673Z,12.10
2023-04-28T08:30:19.131Z,16.65
2023-04-28T08:32:21.791Z,12.18
2023-04-28T08:34:24.739Z,12.63
2023-04-28T08:36:31.942Z,8.52
2023-04-28T08:38:34.898Z,12.30
2023-04-28T08:40:37.497Z,7.20
2023-04-28T08:42:39.912Z,8.40
2023-04-28T08:44:42.595Z,12.30
2023-04-28T08:46:46.217Z,14.82
2023-04-28T08:48:50.058Z,9.52
2023-04-28T08:50:54.769Z,11.15
2023-04-28T08:52:57.243Z,7.30
2023-04-28T08:55:01.546Z,8.63
2023-04-28T08:57:05.645Z,9.93
2023-04-28T08:59:07.993Z,5.00
2023-04-28T09:01:10.302Z,11.45
2023-04-28T09:03:13.807Z,11.40
2023-04-28T09:05:16.612Z,6.55
2023-04-28T09:07:19.226Z,10.95
2023-04-28T09:09:25.705Z,10.40
2023-04-28T09:11:27.982Z,7.93
2023-04-28T09:13:30.241Z,6.53
2023-04-28T09:15:38.406Z,15.23
2023-04-28T09:17:51.153Z,8.02
2023-04-28T09:19:53.560Z,13.68
2023-04-28T09:21:57.470Z,6.72
2023-04-28T09:23:59.849Z,9.93
2023-04-28T09:26:07.625Z,9.20
2023-04-28T09:28:22.092Z,6.90
2023-04-28T09:30:40.193Z,9.88
2023-04-28T09:32:43.027Z,8.07
2023-04-28T09:34:48.036Z,12.02
2023-04-28T09:36:50.740Z,7.35
2023-04-28T09:38:53.576Z,9.57
2023-04-28T09:41:01.189Z,8.07
2023-04-28T09:43:11.941Z,5.37
2023-04-28T09:45:24.565Z,6.68
2023-04-28T09:47:27.123Z,6.82
2023-04-28T09:49:29.518Z,9.35
2023-04-28T09:51:32.366Z,6.95
2023-04-28T09:53:35.817Z,11.23
2023-04-28T09:55:43.911Z,7.18
2023-04-28T09:57:50.034Z,7.20
2023-04-28T09:59:54.331Z,5.95
2023-04-28T10:01:57.545Z,8.85
2023-04-28T10:04:02.846Z,9.05
2023-04-28T10:06:06.202Z,6.60
2023-04-28T10:08:08.941Z,8.88
2023-04-28T10:10:14.733Z,5.12
2023-04-28T10:12:18.355Z,9.43
2023-04-28T10:14:20.687Z,7.05
2023-04-28T10:16:24.213Z,4.72
2023-04-28T10:18:28.687Z,4.53
2023-04-28T10:20:31.728Z,7.72
2023-04-28T10:23:01.413Z,7.07
2023-04-28T10:25:12.906Z,5.10
2023-04-28T10:27:16.043Z,8.30
2023-04-28T10:29:24.342Z,6.18
2023-04-28T10:31:26.709Z,12.65
2023-04-28T10:33:29.637Z,7.97
2023-04-28T10:35:32.652Z,7.57
2023-04-28T10:38:08.442Z,7.12
2023-04-28T10:40:36.625Z,7.00
2023-04-28T10:42:57.282Z,12.13
2023-04-28T10:44:59.581Z,7.55
2023-04-28T10:47:10.276Z,6.25
2023-04-28T10:51:14.885Z,3.37
2023-04-28T10:53:17.448Z,6.10
2023-04-28T10:55:40.271Z,6.47
2023-04-28T10:57:42.938Z,5.75
2023-04-28T10:59:45.437Z,6.60
2023-04-28T11:01:48.072Z,5.78
2023-04-28T11:04:00.775Z,7.47
2023-04-28T11:06:28.400Z,5.18
2023-04-28T11:08:31.742Z,7.80
2023-04-28T11:11:24.529Z,7.78
2023-04-28T11:13:34.295Z,12.30
2023-04-28T11:15:37.763Z,7.90
2023-04-28T11:17:42.225Z,7.18
2023-04-28T11:19:46.268Z,12.05
2023-04-28T11:21:49.440Z,7.72
2023-04-28T11:23:52.580Z,8.75
2023-04-28T11:25:56.104Z,6.47
2023-04-28T11:28:05.262Z,6.37
2023-04-28T11:30:28.575Z,9.32
2023-04-28T11:32:33.064Z,7.00
2023-04-28T11:34:37.420Z,9.20
2023-04-28T11:36:41.106Z,8.20
2023-04-28T11:38:47.101Z,5.15
2023-04-28T11:40:59.301Z,9.15
2023-04-28T11:43:03.911Z,6.07
2023-04-28T11:45:07.193Z,7.72
2023-04-28T11:47:09.821Z,4.72
2023-04-28T11:49:12.641Z,5.60
2023-04-28T11:51:32.419Z,7.55
2023-04-28T11:53:44.918Z,5.10
2023-04-28T11:55:47.407Z,9.63
2023-04-28T11:57:49.717Z,6.12
2023-04-28T11:59:52.755Z,6.72
2023-04-28T12:02:00.242Z,6.30
2023-04-28T12:04:03.513Z,5.20
2023-04-28T12:06:06.013Z,7.87
2023-04-28T12:08:08.349Z,5.95
2023-04-28T12:10:12.531Z,10.27
2023-04-28T12:12:40.138Z,9.85
2023-04-28T12:15:02.234Z,4.82
2023-04-28T12:17:04.948Z,6.30
2023-04-28T12:19:10.274Z,9.45
2023-04-28T12:21:21.556Z,4.90
2023-04-28T12:23:33.900Z,5.93
2023-04-28T12:25:46.369Z,7.75
2023-04-28T12:28:08.540Z,7.37
2023-04-28T12:30:44.066Z,12.60
2023-04-28T12:32:47.034Z,4.60
2023-04-28T12:34:50.790Z,16.40
2023-04-28T12:36:53.496Z,8.10
2023-04-28T12:38:55.988Z,6.53
2023-04-28T12:40:58.898Z,6.35
2023-04-28T12:43:01.739Z,8.65
2023-04-28T12:45:04.512Z,5.37
2023-04-28T12:47:09.085Z,6.57
2023-04-28T12:49:11.829Z,8.13
2023-04-28T12:51:14.176Z,11.60
2023-04-28T12:53:16.983Z,15.80
2023-04-28T12:55:19.567Z,8.90
2023-04-28T12:57:21.883Z,9.93
2023-04-28T12:59:24.221Z,5.03
2023-04-28T13:01:27.502Z,5.60
2023-04-28T13:03:30.006Z,9.27
2023-04-28T13:05:33.149Z,5.62
2023-04-28T13:07:35.848Z,5.72
2023-04-28T13:09:38.622Z,11.02
2023-04-28T13:11:41.795Z,6.95
2023-04-28T13:13:45.225Z,8.55
2023-04-28T13:15:47.758Z,6.65
2023-04-28T13:17:50.170Z,8.98
2023-04-28T13:19:52.897Z,11.45
2023-04-28T13:21:55.391Z,7.03
2023-04-28T13:23:57.723Z,7.10
2023-04-28T13:26:01.049Z,7.53
2023-04-28T13:28:03.546Z,5.60
2023-04-28T13:30:06.366Z,5.57
2023-04-28T13:32:09.033Z,9.25
2023-04-28T13:34:16.065Z,3.53
2023-04-28T13:36:18.717Z,10.75
2023-04-28T13:38:21.484Z,7.75
2023-04-28T13:40:24.148Z,7.15
2023-04-28T13:42:26.521Z,4.95
2023-04-28T13:44:29.081Z,5.82
2023-04-28T13:46:31.625Z,9.70
2023-04-28T13:48:36.314Z,4.72
2023-04-28T13:50:39.706Z,10.88
2023-04-28T13:52:42.038Z,4.18
2023-04-28T13:54:44.739Z,7.82
2023-04-28T13:56:47.634Z,7.95
2023-04-28T13:58:50.022Z,6.90
2023-04-28T14:00:55.071Z,6.40
2023-04-28T14:03:00.755Z,5.15
2023-04-28T14:05:03.274Z,4.85
2023-04-28T14:07:06.489Z,5.05
2023-04-28T14:09:09.517Z,8.32
2023-04-28T14:11:12.066Z,13.45
2023-04-28T14:13:14.597Z,8.85
2023-04-28T14:15:18.158Z,6.78
2023-04-28T14:17:20.646Z,6.15
2023-04-28T14:19:24.346Z,5.05
2023-04-28T14:21:26.922Z,6.47
2023-04-28T14:23:29.742Z,7.05
2023-04-28T14:25:32.097Z,8.45
2023-04-28T14:27:34.794Z,8.98
2023-04-28T14:29:37.180Z,5.37
2023-04-28T14:31:39.624Z,11.95
2023-04-28T14:33:42.586Z,10.93
2023-04-28T14:35:45.041Z,7.40
2023-04-28T14:37:47.847Z,8.70
2023-04-28T14:39:50.852Z,13.25
2023-04-28T14:41:53.450Z,9.25
2023-04-28T14:43:56.772Z,37.08
2023-04-28T14:45:59.870Z,24.05
2023-04-28T14:48:02.354Z,5.57
2023-04-28T14:50:05.774Z,9.35
2023-04-28T14:52:08.906Z,4.70
2023-04-28T14:54:11.185Z,5.47
2023-04-28T14:56:19.090Z,6.62
2023-04-28T14:58:22.342Z,4.62
2023-04-28T15:00:24.962Z,6.50
2023-04-28T15:02:29.428Z,5.32
2023-04-28T15:04:32.715Z,7.32
2023-04-28T15:06:35.537Z,6.25
2023-04-28T15:08:38.185Z,6.47
2023-04-28T15:10:41.036Z,7.95
2023-04-28T15:12:43.901Z,6.87
2023-04-28T15:14:46.598Z,6.28
2023-04-28T15:16:49.270Z,8.63
2023-04-28T15:18:51.504Z,8.52
2023-04-28T15:20:54.572Z,14.27
2023-04-28T15:22:57.445Z,8.07
2023-04-28T15:25:00.156Z,12.70
2023-04-28T15:27:04.154Z,17.55
2023-04-28T15:29:07.038Z,21.10
2023-04-28T15:31:09.489Z,19.65
2023-04-28T15:33:17.682Z,17.40
2023-04-28T15:35:22.081Z,19.90
2023-04-28T15:37:41.598Z,26.27
2023-04-28T15:39:43.910Z,16.23
2023-04-28T15:41:46.676Z,19.30
2023-04-28T15:43:50.471Z,13.82
2023-04-28T15:45:53.079Z,7.10
2023-04-28T15:47:55.752Z,12.50
2023-04-28T15:49:59.242Z,11.45
2023-04-28T15:52:01.557Z,9.98
2023-04-28T15:54:04.354Z,15.48
2023-04-28T15:56:07.049Z,7.65
2023-04-28T15:58:10.856Z,6.80
2023-04-28T16:00:17.168Z,14.80
2023-04-28T16:02:22.285Z,31.10
2023-04-28T16:04:24.946Z,10.02
2023-04-28T16:06:27.747Z,11.88
2023-04-28T16:08:30.341Z,8.35
2023-04-28T16:10:33.097Z,8.52
2023-04-28T16:12:36.351Z,8.75
2023-04-28T16:14:38.990Z,8.70
2023-04-28T16:16:41.681Z,11.12
2023-04-28T16:18:44.346Z,8.52
2023-04-28T16:20:47.078Z,12.70
2023-04-28T16:22:49.477Z,5.75
2023-04-28T16:24:52.175Z,8.48
2023-04-28T16:26:54.925Z,9.55
2023-04-28T16:28:57.174Z,11.55
2023-04-28T16:30:59.490Z,68.18
2023-04-28T16:33:02.183Z,11.20
2023-04-28T16:35:06.493Z,12.00
2023-04-28T16:37:09.674Z,13.57
2023-04-28T16:39:12.229Z,7.47
2023-04-28T16:41:14.546Z,9.45
2023-04-28T16:43:17.838Z,8.57
2023-04-28T16:45:20.643Z,9.85
2023-04-28T16:47:23.160Z,8.65
2023-04-28T16:49:25.876Z,22.35
2023-04-28T16:51:28.476Z,14.27
2023-04-28T16:53:30.744Z,10.90
2023-04-28T16:55:35.171Z,7.43
2023-04-28T16:57:37.892Z,11.80
2023-04-28T16:59:40.271Z,9.23
2023-04-28T17:01:43.172Z,11.77
2023-04-28T17:03:46.302Z,7.47
2023-04-28T17:05:48.749Z,8.88
2023-04-28T17:07:51.110Z,11.18
2023-04-28T17:09:54.034Z,13.15
2023-04-28T17:11:56.464Z,6.70
2023-04-28T17:13:59.123Z,11.88
2023-04-28T17:16:02.485Z,8.75
2023-04-28T17:18:04.998Z,18.75
2023-04-28T17:20:07.897Z,12.93
2023-04-28T17:22:10.832Z,9.02
2023-04-28T17:24:13.403Z,10.20
2023-04-28T17:26:16.530Z,9.50
2023-04-28T17:28:19.084Z,7.45
2023-04-28T17:30:21.723Z,12.23
2023-04-28T17:32:24.302Z,11.48
2023-04-28T17:34:27.032Z,46.92
2023-04-28T17:36:30.553Z,52.70
2023-04-28T17:38:32.982Z,40.97
2023-04-28T17:40:35.662Z,23.77
2023-04-28T17:42:38.092Z,11.93
2023-04-28T17:44:40.415Z,13.07
2023-04-28T17:46:43.068Z,11.82
2023-04-28T17:48:45.820Z,9.07
2023-04-28T17:50:48.628Z,15.60
2023-04-28T17:52:51.845Z,9.43
2023-04-28T17:54:54.712Z,15.23
2023-04-28T17:56:57.223Z,9.95
2023-04-28T17:59:00.277Z,15.18
2023-04-28T18:01:07.674Z,13.02
2023-04-28T18:03:10.364Z,9.68
2023-04-28T18:05:13.064Z,55.50
2023-04-28T18:07:15.477Z,20.17
2023-04-28T18:09:18.006Z,15.45
2023-04-28T18:11:20.546Z,12.50
2023-04-28T18:13:24.044Z,9.38
2023-04-28T18:15:27.144Z,15.00
2023-04-28T18:17:29.714Z,18.92
2023-04-28T18:19:33.531Z,23.10
2023-04-28T18:21:37.515Z,17.23
2023-04-28T18:23:40.067Z,40.20
2023-04-28T18:25:44.019Z,37.78
2023-04-28T18:27:47.105Z,20.73
2023-04-28T18:29:52.081Z,23.35
2023-04-28T18:31:55.434Z,19.87
2023-04-28T18:33:59.898Z,20.80
2023-04-28T18:36:07.650Z,23.10
2023-04-28T18:38:11.741Z,29.73
2023-04-28T18:40:15.608Z,22.62
2023-04-28T18:42:18.856Z,24.37
2023-04-28T18:44:21.816Z,22.90
2023-04-28T18:46:25.618Z,33.28
2023-04-28T18:48:28.459Z,29.60
2023-04-28T18:50:31.890Z,25.02
2023-04-28T18:52:34.945Z,39.10
2023-04-28T18:54:38.044Z,39.17
2023-04-28T18:56:41.799Z,38.40
2023-04-28T18:58:46.323Z,41.45
2023-04-28T19:00:49.747Z,37.80
2023-04-28T19:02:52.877Z,44.90
2023-04-28T19:04:57.171Z,45.58
2023-04-28T19:07:00.804Z,43.45
2023-04-28T19:09:03.415Z,41.67
2023-04-28T19:11:11.295Z,53.83
2023-04-28T19:13:17.749Z,67.12
2023-04-28T19:15:20.925Z,66.85
2023-04-28T19:17:25.014Z,63.40
2023-04-28T19:19:27.906Z,58.78
2023-04-28T19:21:30.628Z,79.62
2023-04-28T19:23:34.274Z,91.97
2023-04-28T19:25:37.806Z,74.87
2023-04-28T19:27:43.416Z,120.93
2023-04-28T19:29:50.429Z,146.30
2023-04-28T19:31:53.814Z,95.68
2023-04-28T19:33:58.164Z,57.75
2023-04-28T19:36:01.474Z,83.65
2023-04-28T19:38:04.333Z,76.60
2023-04-28T19:40:09.348Z,73.37
2023-04-28T19:42:15.477Z,67.07
2023-04-28T19:44:18.290Z,72.78
2023-04-28T19:46:21.840Z,70.20
2023-04-28T19:48:26.385Z,59.63
2023-04-28T19:50:29.117Z,65.03
2023-04-28T19:52:32.146Z,64.43
2023-04-28T19:54:35.877Z,65.50
2023-04-28T19:56:39.103Z,61.70
2023-04-28T19:58:41.970Z,64.43
2023-04-28T20:00:45.422Z,67.70
2023-04-28T20:02:48.955Z,64.82
2023-04-28T20:04:52.671Z,71.45
2023-04-28T20:06:55.540Z,69.47
2023-04-28T20:09:06.454Z,76.60
2023-04-28T20:11:09.541Z,87.78
2023-04-28T20:13:17.215Z,74.62
2023-04-28T20:15:21.075Z,77.62
2023-04-28T20:17:24.111Z,75.22
2023-04-28T20:19:27.013Z,79.95
2023-04-28T20:21:30.096Z,87.53
2023-04-28T20:23:33.597Z,82.10
2023-04-28T20:25:37.800Z,82.35
2023-04-28T20:27:41.258Z,103.43
2023-04-28T20:29:44.372Z,86.43
2023-04-28T20:31:47.564Z,76.43
2023-04-28T20:33:51.625Z,66.75
2023-04-28T20:35:54.194Z,80.00
2023-04-28T20:37:58.134Z,66.68
2023-04-28T20:40:00.911Z,49.40
2023-04-28T20:42:03.563Z,51.65
2023-04-28T20:44:06.641Z,45.15
2023-04-28T20:46:13.740Z,39.72
2023-04-28T20:48:16.034Z,41.92
2023-04-28T20:50:18.507Z,38.03
2023-04-28T20:52:21.290Z,40.28
2023-04-28T20:54:23.787Z,36.20
2023-04-28T20:56:27.193Z,33.95
2023-04-28T20:58:30.998Z,36.35
2023-04-28T21:00:33.762Z,33.28
2023-04-28T21:02:36.339Z,34.08
2023-04-28T21:04:39.106Z,29.15
2023-04-28T21:06:41.412Z,26.98
2023-04-28T21:08:44.012Z,25.33
2023-04-28T21:10:46.813Z,24.83
2023-04-28T21:12:49.395Z,21.27
2023-04-28T21:14:52.052Z,22.17
2023-04-28T21:16:54.899Z,17.87
2023-04-28T21:18:57.637Z,24.60
2023-04-28T21:20:59.902Z,18.12
2023-04-28T21:23:02.909Z,61.53
2023-04-28T21:25:07.109Z,23.27
2023-04-28T21:27:09.739Z,19.27
2023-04-28T21:29:12.453Z,17.55
2023-04-28T21:31:14.720Z,13.85
2023-04-28T21:33:17.039Z,21.65
2023-04-28T21:35:19.771Z,57.70
2023-04-28T21:37:22.436Z,15.88
2023-04-28T21:39:24.722Z,16.73
2023-04-28T21:41:27.329Z,11.90
2023-04-28T21:43:29.843Z,17.67
2023-04-28T21:45:32.220Z,10.38
2023-04-28T21:47:34.856Z,11.27
2023-04-28T21:49:37.495Z,10.32
2023-04-28T21:51:42.998Z,11.63
2023-04-28T21:53:45.675Z,12.63
2023-04-28T21:55:48.090Z,9.60
2023-04-28T21:57:50.442Z,16.10
2023-04-28T21:59:53.323Z,9.80
2023-04-28T22:01:57.132Z,9.20
2023-04-28T22:04:01.650Z,13.52
2023-04-28T22:06:04.093Z,11.57
2023-04-28T22:08:06.428Z,20.70
2023-04-28T22:10:10.474Z,13.65
2023-04-28T22:12:13.170Z,23.02
2023-04-28T22:14:35.058Z,29.73
2023-04-28T22:16:38.709Z,10.63
2023-04-28T22:18:40.959Z,15.40
2023-04-28T22:20:44.472Z,74.65
